sensor_id;sensor_type;location;lat;lon;timestamp;P1;durP1;ratioP1;P2;durP2;ratioP2
19617;SDS011;9956;51.006;13.670;2023-03-16T00:04:20;7.97;;;6.00;;
19617;SDS011;9956;51.006;13.670;2023-03-16T00:09:21;10.75;;;5.88;;
19617;SDS011;9956;51.006;13.670;2023-03-16T00:14:30;11.02;;;6.15;;
19617;SDS011;9956;51.006;13.670;2023-03-16T00:19:31;10.93;;;5.25;;
19617;SDS011;9956;51.006;13.670;2023-03-16T00:24:34;11.90;;;6.15;;
19617;SDS011;9956;51.006;13.670;2023-03-16T00:29:37;8.45;;;6.28;;
19617;SDS011;9956;51.006;13.670;2023-03-16T00:34:38;14.70;;;7.55;;
19617;SDS011;9956;51.006;13.670;2023-03-16T00:39:38;10.18;;;6.57;;
19617;SDS011;9956;51.006;13.670;2023-03-16T00:44:40;11.20;;;6.88;;
19617;SDS011;9956;51.006;13.670;2023-03-16T00:49:43;8.93;;;6.70;;
19617;SDS011;9956;51.006;13.670;2023-03-16T00:54:45;6.88;;;5.53;;
19617;SDS011;9956;51.006;13.670;2023-03-16T00:59:46;10.57;;;7.53;;
19617;SDS011;9956;51.006;13.670;2023-03-16T01:04:47;10.27;;;7.45;;
19617;SDS011;9956;51.006;13.670;2023-03-16T01:09:48;8.90;;;6.65;;
19617;SDS011;9956;51.006;13.670;2023-03-16T01:14:48;12.85;;;7.93;;
19617;SDS011;9956;51.006;13.670;2023-03-16T01:19:48;11.60;;;7.57;;
19617;SDS011;9956;51.006;13.670;2023-03-16T01:24:50;8.10;;;5.60;;
19617;SDS011;9956;51.006;13.670;2023-03-16T01:29:51;6.55;;;4.47;;
19617;SDS011;9956;51.006;13.670;2023-03-16T01:34:51;8.05;;;5.05;;
19617;SDS011;9956;51.006;13.670;2023-03-16T01:39:52;10.73;;;5.03;;
19617;SDS011;9956;51.006;13.670;2023-03-16T01:44:55;7.85;;;5.13;;
19617;SDS011;9956;51.006;13.670;2023-03-16T01:50:04;6.47;;;4.85;;
19617;SDS011;9956;51.006;13.670;2023-03-16T01:55:08;6.75;;;4.60;;
19617;SDS011;9956;51.006;13.670;2023-03-16T02:00:17;10.23;;;6.03;;
19617;SDS011;9956;51.006;13.670;2023-03-16T02:05:38;11.48;;;7.57;;
19617;SDS011;9956;51.006;13.670;2023-03-16T02:11:01;12.32;;;9.93;;
19617;SDS011;9956;51.006;13.670;2023-03-16T02:16:14;8.88;;;7.97;;
19617;SDS011;9956;51.006;13.670;2023-03-16T02:32:17;7.05;;;5.40;;
19617;SDS011;9956;51.006;13.670;2023-03-16T02:37:18;7.57;;;5.30;;
19617;SDS011;9956;51.006;13.670;2023-03-16T02:42:22;7.18;;;4.93;;
19617;SDS011;9956;51.006;13.670;2023-03-16T02:47:33;6.97;;;4.80;;
19617;SDS011;9956;51.006;13.670;2023-03-16T02:52:37;7.18;;;5.00;;
19617;SDS011;9956;51.006;13.670;2023-03-16T02:57:39;8.63;;;5.28;;
19617;SDS011;9956;51.006;13.670;2023-03-16T03:02:45;9.13;;;5.07;;
19617;SDS011;9956;51.006;13.670;2023-03-16T03:07:46;6.15;;;5.13;;
19617;SDS011;9956;51.006;13.670;2023-03-16T03:12:47;8.50;;;6.22;;
19617;SDS011;9956;51.006;13.670;2023-03-16T03:17:49;9.57;;;5.50;;
19617;SDS011;9956;51.006;13.670;2023-03-16T03:22:50;7.85;;;5.00;;
19617;SDS011;9956;51.006;13.670;2023-03-16T03:27:51;10.20;;;5.22;;
19617;SDS011;9956;51.006;13.670;2023-03-16T03:32:56;7.47;;;4.95;;
19617;SDS011;9956;51.006;13.670;2023-03-16T03:37:57;6.63;;;5.25;;
19617;SDS011;9956;51.006;13.670;2023-03-16T03:42:59;6.65;;;4.57;;
19617;SDS011;9956;51.006;13.670;2023-03-16T03:48:03;7.18;;;5.30;;
19617;SDS011;9956;51.006;13.670;2023-03-16T03:53:04;7.63;;;5.10;;
19617;SDS011;9956;51.006;13.670;2023-03-16T03:58:13;9.25;;;5.90;;
19617;SDS011;9956;51.006;13.670;2023-03-16T04:03:14;7.03;;;5.00;;
19617;SDS011;9956;51.006;13.670;2023-03-16T04:08:18;6.28;;;5.53;;
19617;SDS011;9956;51.006;13.670;2023-03-16T04:13:19;8.40;;;6.00;;
19617;SDS011;9956;51.006;13.670;2023-03-16T04:18:20;8.30;;;5.93;;
19617;SDS011;9956;51.006;13.670;2023-03-16T04:23:21;8.02;;;5.00;;
19617;SDS011;9956;51.006;13.670;2023-03-16T04:28:24;7.50;;;5.63;;
19617;SDS011;9956;51.006;13.670;2023-03-16T04:33:26;11.55;;;5.68;;
19617;SDS011;9956;51.006;13.670;2023-03-16T04:38:28;7.82;;;5.43;;
19617;SDS011;9956;51.006;13.670;2023-03-16T04:43:33;8.15;;;4.85;;
19617;SDS011;9956;51.006;13.670;2023-03-16T04:48:39;7.13;;;5.75;;
19617;SDS011;9956;51.006;13.670;2023-03-16T04:53:39;8.02;;;5.30;;
19617;SDS011;9956;51.006;13.670;2023-03-16T04:58:49;6.20;;;5.38;;
19617;SDS011;9956;51.006;13.670;2023-03-16T05:03:50;10.32;;;6.15;;
19617;SDS011;9956;51.006;13.670;2023-03-16T05:08:52;8.52;;;5.57;;
19617;SDS011;9956;51.006;13.670;2023-03-16T05:13:53;8.68;;;5.75;;
19617;SDS011;9956;51.006;13.670;2023-03-16T05:18:56;8.88;;;4.80;;
19617;SDS011;9956;51.006;13.670;2023-03-16T05:23:58;11.30;;;5.57;;
19617;SDS011;9956;51.006;13.670;2023-03-16T05:28:59;7.30;;;5.57;;
19617;SDS011;9956;51.006;13.670;2023-03-16T05:34:02;7.07;;;6.15;;
19617;SDS011;9956;51.006;13.670;2023-03-16T05:39:03;8.30;;;5.47;;
19617;SDS011;9956;51.006;13.670;2023-03-16T05:44:09;12.10;;;6.22;;
19617;SDS011;9956;51.006;13.670;2023-03-16T05:49:28;9.70;;;6.10;;
19617;SDS011;9956;51.006;13.670;2023-03-16T05:54:30;8.70;;;6.22;;
19617;SDS011;9956;51.006;13.670;2023-03-16T05:59:31;10.98;;;6.03;;
19617;SDS011;9956;51.006;13.670;2023-03-16T06:04:32;10.23;;;6.53;;
19617;SDS011;9956;51.006;13.670;2023-03-16T06:09:33;7.25;;;5.40;;
19617;SDS011;9956;51.006;13.670;2023-03-16T06:14:42;12.23;;;6.60;;
19617;SDS011;9956;51.006;13.670;2023-03-16T06:19:44;9.50;;;5.30;;
19617;SDS011;9956;51.006;13.670;2023-03-16T06:24:45;8.48;;;5.70;;
19617;SDS011;9956;51.006;13.670;2023-03-16T06:29:48;6.93;;;4.72;;
19617;SDS011;9956;51.006;13.670;2023-03-16T06:34:48;6.70;;;4.80;;
19617;SDS011;9956;51.006;13.670;2023-03-16T06:39:49;6.55;;;4.32;;
19617;SDS011;9956;51.006;13.670;2023-03-16T06:44:50;9.00;;;4.53;;
19617;SDS011;9956;51.006;13.670;2023-03-16T06:49:52;7.80;;;3.58;;
19617;SDS011;9956;51.006;13.670;2023-03-16T06:54:58;7.68;;;3.65;;
19617;SDS011;9956;51.006;13.670;2023-03-16T07:00:02;7.45;;;4.45;;
19617;SDS011;9956;51.006;13.670;2023-03-16T07:05:03;7.00;;;3.55;;
19617;SDS011;9956;51.006;13.670;2023-03-16T07:10:04;7.75;;;3.75;;
19617;SDS011;9956;51.006;13.670;2023-03-16T07:15:06;5.93;;;3.50;;
19617;SDS011;9956;51.006;13.670;2023-03-16T07:20:09;5.22;;;3.78;;
19617;SDS011;9956;51.006;13.670;2023-03-16T07:25:12;6.85;;;3.65;;
19617;SDS011;9956;51.006;13.670;2023-03-16T07:30:18;7.57;;;3.78;;
19617;SDS011;9956;51.006;13.670;2023-03-16T07:35:21;7.40;;;4.20;;
19617;SDS011;9956;51.006;13.670;2023-03-16T07:40:23;7.53;;;4.22;;
19617;SDS011;9956;51.006;13.670;2023-03-16T07:45:24;8.50;;;6.28;;
19617;SDS011;9956;51.006;13.670;2023-03-16T07:50:24;8.93;;;5.65;;
19617;SDS011;9956;51.006;13.670;2023-03-16T07:55:26;9.82;;;4.88;;
19617;SDS011;9956;51.006;13.670;2023-03-16T08:00:28;7.07;;;4.43;;
19617;SDS011;9956;51.006;13.670;2023-03-16T08:05:28;8.77;;;5.22;;
19617;SDS011;9956;51.006;13.670;2023-03-16T08:10:34;6.00;;;4.57;;
19617;SDS011;9956;51.006;13.670;2023-03-16T08:15:44;9.00;;;5.78;;
19617;SDS011;9956;51.006;13.670;2023-03-16T08:20:53;7.40;;;5.32;;
19617;SDS011;9956;51.006;13.670;2023-03-16T08:25:54;7.25;;;4.80;;
19617;SDS011;9956;51.006;13.670;2023-03-16T08:30:56;7.75;;;5.50;;
19617;SDS011;9956;51.006;13.670;2023-03-16T08:36:29;8.23;;;4.57;;
19617;SDS011;9956;51.006;13.670;2023-03-16T08:41:31;7.45;;;4.47;;
19617;SDS011;9956;51.006;13.670;2023-03-16T08:46:38;5.25;;;4.40;;
19617;SDS011;9956;51.006;13.670;2023-03-16T08:51:40;7.20;;;4.43;;
19617;SDS011;9956;51.006;13.670;2023-03-16T08:56:41;6.60;;;4.20;;
19617;SDS011;9956;51.006;13.670;2023-03-16T09:01:42;6.00;;;3.92;;
19617;SDS011;9956;51.006;13.670;2023-03-16T09:06:42;6.25;;;3.15;;
19617;SDS011;9956;51.006;13.670;2023-03-16T09:11:43;6.97;;;2.95;;
19617;SDS011;9956;51.006;13.670;2023-03-16T09:16:44;4.22;;;2.97;;
19617;SDS011;9956;51.006;13.670;2023-03-16T09:21:45;3.70;;;1.52;;
19617;SDS011;9956;51.006;13.670;2023-03-16T09:26:46;3.55;;;2.10;;
19617;SDS011;9956;51.006;13.670;2023-03-16T09:31:46;2.30;;;1.38;;
19617;SDS011;9956;51.006;13.670;2023-03-16T09:36:47;3.15;;;1.25;;
19617;SDS011;9956;51.006;13.670;2023-03-16T09:41:58;2.17;;;0.85;;
19617;SDS011;9956;51.006;13.670;2023-03-16T09:47:11;2.75;;;1.00;;
19617;SDS011;9956;51.006;13.670;2023-03-16T09:52:24;3.13;;;0.90;;
19617;SDS011;9956;51.006;13.670;2023-03-16T09:57:45;3.88;;;1.33;;
19617;SDS011;9956;51.006;13.670;2023-03-16T10:08:42;2.42;;;0.93;;
19617;SDS011;9956;51.006;13.670;2023-03-16T10:18:38;2.28;;;0.73;;
19617;SDS011;9956;51.006;13.670;2023-03-16T10:23:41;2.38;;;0.93;;
19617;SDS011;9956;51.006;13.670;2023-03-16T10:28:42;2.78;;;0.82;;
19617;SDS011;9956;51.006;13.670;2023-03-16T10:33:44;2.97;;;1.13;;
19617;SDS011;9956;51.006;13.670;2023-03-16T10:38:46;2.97;;;1.35;;
19617;SDS011;9956;51.006;13.670;2023-03-16T10:43:52;2.70;;;1.10;;
19617;SDS011;9956;51.006;13.670;2023-03-16T10:54:45;3.65;;;1.17;;
19617;SDS011;9956;51.006;13.670;2023-03-16T10:59:46;2.67;;;1.02;;
19617;SDS011;9956;51.006;13.670;2023-03-16T11:04:50;3.47;;;1.33;;
19617;SDS011;9956;51.006;13.670;2023-03-16T11:09:53;4.78;;;1.33;;
19617;SDS011;9956;51.006;13.670;2023-03-16T11:15:01;2.53;;;1.10;;
19617;SDS011;9956;51.006;13.670;2023-03-16T11:20:04;2.45;;;1.42;;
19617;SDS011;9956;51.006;13.670;2023-03-16T11:25:16;5.30;;;1.70;;
19617;SDS011;9956;51.006;13.670;2023-03-16T11:30:32;4.40;;;1.90;;
19617;SDS011;9956;51.006;13.670;2023-03-16T11:40:56;5.18;;;1.90;;
19617;SDS011;9956;51.006;13.670;2023-03-16T11:56:49;4.68;;;1.63;;
19617;SDS011;9956;51.006;13.670;2023-03-16T12:07:20;4.35;;;1.50;;
19617;SDS011;9956;51.006;13.670;2023-03-16T12:12:44;4.40;;;1.67;;
19617;SDS011;9956;51.006;13.670;2023-03-16T12:18:11;3.95;;;2.03;;
19617;SDS011;9956;51.006;13.670;2023-03-16T12:23:53;2.80;;;1.45;;
19617;SDS011;9956;51.006;13.670;2023-03-16T12:28:54;4.05;;;1.13;;
19617;SDS011;9956;51.006;13.670;2023-03-16T12:44:44;1.38;;;1.02;;
19617;SDS011;9956;51.006;13.670;2023-03-16T12:49:46;4.60;;;1.35;;
19617;SDS011;9956;51.006;13.670;2023-03-16T12:54:51;4.70;;;1.20;;
19617;SDS011;9956;51.006;13.670;2023-03-16T13:00:07;4.10;;;1.60;;
19617;SDS011;9956;51.006;13.670;2023-03-16T13:05:10;3.28;;;1.42;;
19617;SDS011;9956;51.006;13.670;2023-03-16T13:10:15;2.63;;;1.30;;
19617;SDS011;9956;51.006;13.670;2023-03-16T13:30:28;3.22;;;1.35;;
19617;SDS011;9956;51.006;13.670;2023-03-16T13:35:30;2.85;;;1.50;;
19617;SDS011;9956;51.006;13.670;2023-03-16T13:40:31;2.50;;;1.38;;
19617;SDS011;9956;51.006;13.670;2023-03-16T13:45:32;6.00;;;1.80;;
19617;SDS011;9956;51.006;13.670;2023-03-16T13:50:36;3.50;;;1.52;;
19617;SDS011;9956;51.006;13.670;2023-03-16T13:55:42;3.35;;;1.30;;
19617;SDS011;9956;51.006;13.670;2023-03-16T14:00:44;3.50;;;1.52;;
19617;SDS011;9956;51.006;13.670;2023-03-16T14:05:46;4.00;;;1.40;;
19617;SDS011;9956;51.006;13.670;2023-03-16T14:10:47;2.85;;;1.10;;
19617;SDS011;9956;51.006;13.670;2023-03-16T14:15:48;5.05;;;2.03;;
19617;SDS011;9956;51.006;13.670;2023-03-16T14:20:50;4.63;;;1.65;;
19617;SDS011;9956;51.006;13.670;2023-03-16T14:25:52;4.43;;;1.65;;
19617;SDS011;9956;51.006;13.670;2023-03-16T14:31:00;4.43;;;1.90;;
19617;SDS011;9956;51.006;13.670;2023-03-16T14:36:19;6.75;;;1.85;;
19617;SDS011;9956;51.006;13.670;2023-03-16T14:41:21;5.93;;;2.20;;
19617;SDS011;9956;51.006;13.670;2023-03-16T14:46:31;2.50;;;1.95;;
19617;SDS011;9956;51.006;13.670;2023-03-16T14:51:34;4.25;;;2.10;;
19617;SDS011;9956;51.006;13.670;2023-03-16T14:56:35;5.18;;;3.05;;
19617;SDS011;9956;51.006;13.670;2023-03-16T15:01:36;2.95;;;2.17;;
19617;SDS011;9956;51.006;13.670;2023-03-16T15:06:37;3.78;;;2.25;;
19617;SDS011;9956;51.006;13.670;2023-03-16T15:11:39;5.13;;;2.83;;
19617;SDS011;9956;51.006;13.670;2023-03-16T15:16:42;6.72;;;2.67;;
19617;SDS011;9956;51.006;13.670;2023-03-16T15:21:42;4.47;;;2.30;;
19617;SDS011;9956;51.006;13.670;2023-03-16T15:26:43;4.40;;;2.60;;
19617;SDS011;9956;51.006;13.670;2023-03-16T15:31:47;6.43;;;3.47;;
19617;SDS011;9956;51.006;13.670;2023-03-16T15:36:47;5.20;;;4.00;;
19617;SDS011;9956;51.006;13.670;2023-03-16T15:41:48;5.38;;;3.80;;
19617;SDS011;9956;51.006;13.670;2023-03-16T15:46:49;4.85;;;4.10;;
19617;SDS011;9956;51.006;13.670;2023-03-16T15:51:50;4.70;;;3.80;;
19617;SDS011;9956;51.006;13.670;2023-03-16T15:56:50;7.65;;;3.55;;
19617;SDS011;9956;51.006;13.670;2023-03-16T16:01:51;7.70;;;3.60;;
19617;SDS011;9956;51.006;13.670;2023-03-16T16:06:52;5.10;;;3.42;;
19617;SDS011;9956;51.006;13.670;2023-03-16T16:11:58;6.32;;;4.13;;
19617;SDS011;9956;51.006;13.670;2023-03-16T16:16:58;6.20;;;4.20;;
19617;SDS011;9956;51.006;13.670;2023-03-16T16:21:59;6.97;;;4.10;;
19617;SDS011;9956;51.006;13.670;2023-03-16T16:26:59;7.00;;;4.22;;
19617;SDS011;9956;51.006;13.670;2023-03-16T16:32:00;6.18;;;4.75;;
19617;SDS011;9956;51.006;13.670;2023-03-16T16:37:00;7.53;;;4.95;;
19617;SDS011;9956;51.006;13.670;2023-03-16T16:42:01;7.65;;;4.35;;
19617;SDS011;9956;51.006;13.670;2023-03-16T16:47:01;6.55;;;4.53;;
19617;SDS011;9956;51.006;13.670;2023-03-16T16:52:02;5.45;;;4.25;;
19617;SDS011;9956;51.006;13.670;2023-03-16T16:57:04;9.55;;;5.05;;
19617;SDS011;9956;51.006;13.670;2023-03-16T17:02:20;9.13;;;6.10;;
19617;SDS011;9956;51.006;13.670;2023-03-16T17:07:23;8.35;;;4.45;;
19617;SDS011;9956;51.006;13.670;2023-03-16T17:12:23;8.70;;;4.78;;
19617;SDS011;9956;51.006;13.670;2023-03-16T17:17:24;8.13;;;5.07;;
19617;SDS011;9956;51.006;13.670;2023-03-16T17:22:25;6.55;;;5.15;;
19617;SDS011;9956;51.006;13.670;2023-03-16T17:27:27;8.35;;;4.78;;
19617;SDS011;9956;51.006;13.670;2023-03-16T17:32:29;7.53;;;5.07;;
19617;SDS011;9956;51.006;13.670;2023-03-16T17:37:30;9.70;;;5.15;;
19617;SDS011;9956;51.006;13.670;2023-03-16T17:42:30;7.95;;;4.85;;
19617;SDS011;9956;51.006;13.670;2023-03-16T17:47:30;9.48;;;5.00;;
19617;SDS011;9956;51.006;13.670;2023-03-16T17:52:37;7.40;;;4.50;;
19617;SDS011;9956;51.006;13.670;2023-03-16T17:57:37;11.32;;;7.88;;
19617;SDS011;9956;51.006;13.670;2023-03-16T18:02:42;12.77;;;8.15;;
19617;SDS011;9956;51.006;13.670;2023-03-16T18:13:23;7.97;;;5.03;;
19617;SDS011;9956;51.006;13.670;2023-03-16T18:18:36;9.20;;;5.43;;
19617;SDS011;9956;51.006;13.670;2023-03-16T18:23:37;6.53;;;4.93;;
19617;SDS011;9956;51.006;13.670;2023-03-16T18:28:37;7.38;;;5.28;;
19617;SDS011;9956;51.006;13.670;2023-03-16T18:33:38;6.55;;;4.60;;
19617;SDS011;9956;51.006;13.670;2023-03-16T18:38:41;15.23;;;8.63;;
19617;SDS011;9956;51.006;13.670;2023-03-16T18:43:43;12.35;;;6.57;;
19617;SDS011;9956;51.006;13.670;2023-03-16T18:48:44;13.00;;;8.10;;
19617;SDS011;9956;51.006;13.670;2023-03-16T18:53:45;13.52;;;8.05;;
19617;SDS011;9956;51.006;13.670;2023-03-16T18:58:48;53.05;;;23.30;;
19617;SDS011;9956;51.006;13.670;2023-03-16T19:03:51;20.40;;;12.55;;
19617;SDS011;9956;51.006;13.670;2023-03-16T19:08:53;11.23;;;7.65;;
19617;SDS011;9956;51.006;13.670;2023-03-16T19:13:54;9.20;;;6.88;;
19617;SDS011;9956;51.006;13.670;2023-03-16T19:18:54;14.13;;;9.00;;
19617;SDS011;9956;51.006;13.670;2023-03-16T19:23:56;9.20;;;4.82;;
19617;SDS011;9956;51.006;13.670;2023-03-16T19:28:58;7.30;;;4.68;;
19617;SDS011;9956;51.006;13.670;2023-03-16T19:34:00;7.03;;;5.95;;
19617;SDS011;9956;51.006;13.670;2023-03-16T19:39:00;8.10;;;6.35;;
19617;SDS011;9956;51.006;13.670;2023-03-16T19:44:05;13.00;;;9.23;;
19617;SDS011;9956;51.006;13.670;2023-03-16T19:49:22;16.67;;;8.20;;
19617;SDS011;9956;51.006;13.670;2023-03-16T19:54:26;7.40;;;5.50;;
19617;SDS011;9956;51.006;13.670;2023-03-16T19:59:29;11.55;;;6.55;;
19617;SDS011;9956;51.006;13.670;2023-03-16T20:04:31;13.57;;;10.93;;
19617;SDS011;9956;51.006;13.670;2023-03-16T20:09:32;6.38;;;4.15;;
19617;SDS011;9956;51.006;13.670;2023-03-16T20:14:32;9.45;;;5.78;;
19617;SDS011;9956;51.006;13.670;2023-03-16T20:19:33;12.73;;;8.23;;
19617;SDS011;9956;51.006;13.670;2023-03-16T20:24:34;6.22;;;4.30;;
19617;SDS011;9956;51.006;13.670;2023-03-16T20:29:34;7.60;;;3.17;;
19617;SDS011;9956;51.006;13.670;2023-03-16T20:34:35;5.72;;;3.65;;
19617;SDS011;9956;51.006;13.670;2023-03-16T20:39:36;6.18;;;3.42;;
19617;SDS011;9956;51.006;13.670;2023-03-16T20:44:37;6.65;;;3.38;;
19617;SDS011;9956;51.006;13.670;2023-03-16T20:49:38;5.40;;;3.17;;
19617;SDS011;9956;51.006;13.670;2023-03-16T20:54:38;5.97;;;3.80;;
19617;SDS011;9956;51.006;13.670;2023-03-16T20:59:39;7.03;;;3.63;;
19617;SDS011;9956;51.006;13.670;2023-03-16T21:04:39;5.68;;;3.75;;
19617;SDS011;9956;51.006;13.670;2023-03-16T21:09:41;7.43;;;3.90;;
19617;SDS011;9956;51.006;13.670;2023-03-16T21:14:42;5.72;;;3.50;;
19617;SDS011;9956;51.006;13.670;2023-03-16T21:19:42;5.47;;;3.53;;
19617;SDS011;9956;51.006;13.670;2023-03-16T21:24:43;5.47;;;3.55;;
19617;SDS011;9956;51.006;13.670;2023-03-16T21:29:44;6.47;;;3.47;;
19617;SDS011;9956;51.006;13.670;2023-03-16T21:34:44;8.50;;;4.53;;
19617;SDS011;9956;51.006;13.670;2023-03-16T21:39:45;6.65;;;3.90;;
19617;SDS011;9956;51.006;13.670;2023-03-16T21:44:47;7.38;;;4.13;;
19617;SDS011;9956;51.006;13.670;2023-03-16T21:49:47;6.70;;;3.60;;
19617;SDS011;9956;51.006;13.670;2023-03-16T21:54:49;7.40;;;3.92;;
19617;SDS011;9956;51.006;13.670;2023-03-16T21:59:50;7.53;;;3.90;;
19617;SDS011;9956;51.006;13.670;2023-03-16T22:04:50;6.75;;;4.22;;
19617;SDS011;9956;51.006;13.670;2023-03-16T22:09:51;5.95;;;4.32;;
19617;SDS011;9956;51.006;13.670;2023-03-16T22:14:51;10.85;;;4.75;;
19617;SDS011;9956;51.006;13.670;2023-03-16T22:19:52;8.07;;;4.30;;
19617;SDS011;9956;51.006;13.670;2023-03-16T22:24:52;7.70;;;4.88;;
19617;SDS011;9956;51.006;13.670;2023-03-16T22:29:53;7.38;;;5.40;;
19617;SDS011;9956;51.006;13.670;2023-03-16T22:34:54;8.48;;;4.78;;
19617;SDS011;9956;51.006;13.670;2023-03-16T22:39:56;6.85;;;4.20;;
19617;SDS011;9956;51.006;13.670;2023-03-16T22:44:57;6.57;;;5.18;;
19617;SDS011;9956;51.006;13.670;2023-03-16T22:49:58;5.82;;;4.25;;
19617;SDS011;9956;51.006;13.670;2023-03-16T22:54:59;7.43;;;4.85;;
19617;SDS011;9956;51.006;13.670;2023-03-16T23:00:00;6.93;;;4.47;;
19617;SDS011;9956;51.006;13.670;2023-03-16T23:10:20;6.68;;;3.90;;
19617;SDS011;9956;51.006;13.670;2023-03-16T23:15:23;6.32;;;4.70;;
19617;SDS011;9956;51.006;13.670;2023-03-16T23:20:29;5.10;;;3.75;;
19617;SDS011;9956;51.006;13.670;2023-03-16T23:25:30;5.75;;;4.22;;
19617;SDS011;9956;51.006;13.670;2023-03-16T23:30:31;8.05;;;4.53;;
19617;SDS011;9956;51.006;13.670;2023-03-16T23:35:32;6.10;;;3.90;;
19617;SDS011;9956;51.006;13.670;2023-03-16T23:40:33;6.10;;;4.13;;
19617;SDS011;9956;51.006;13.670;2023-03-16T23:45:42;4.85;;;3.97;;
19617;SDS011;9956;51.006;13.670;2023-03-16T23:50:45;6.07;;;4.00;;
19617;SDS011;9956;51.006;13.670;2023-03-16T23:55:47;5.97;;;3.88;;
